createdAt,value
2022-10-17T00:08:28.870Z,98402.72
2022-10-17T00:38:32.952Z,98423.91
2022-10-17T01:08:37.547Z,98434.75
2022-10-17T01:38:45.596Z,98423.22
2022-10-17T02:39:13.325Z,98428.47
2022-10-17T03:09:17.770Z,98429.75
2022-10-17T03:39:21.958Z,98450.16
2022-10-17T04:09:26.080Z,98461.31
2022-10-17T04:39:30.515Z,98480.66
2022-10-17T05:09:34.602Z,98473.72
2022-10-17T05:39:39.346Z,98488.41
2022-10-17T06:09:43.520Z,98478.84
2022-10-17T06:39:47.847Z,98512.81
2022-10-17T07:09:52.783Z,98541.13
2022-10-17T07:39:57.862Z,98564.16
2022-10-17T08:10:02.422Z,98582.69
2022-10-17T08:40:07.856Z,98581.59
2022-10-17T09:10:18.491Z,98609.09
2022-10-17T09:40:25.894Z,98636.38
2022-10-17T10:10:30.898Z,98663.13
2022-10-17T10:40:38.009Z,98658.56
2022-10-17T11:10:45.758Z,98680.59
2022-10-17T11:40:52.413Z,98690.72
2022-10-17T12:10:59.427Z,98706.09
2022-10-17T12:41:05.775Z,98704.53
2022-10-17T13:11:10.423Z,98716.34
2022-10-17T13:41:35.955Z,98737.88
2022-10-17T14:11:41.821Z,98759.38
2022-10-17T14:41:47.064Z,98763.13
2022-10-17T15:11:51.983Z,98782.53
2022-10-17T15:41:56.195Z,98797.50
2022-10-17T16:12:01.596Z,98819.13
2022-10-17T16:42:05.867Z,98836.03
2022-10-17T17:12:10.003Z,98875.91
2022-10-17T17:42:14.118Z,98885.88
2022-10-17T18:12:18.279Z,98900.78
2022-10-17T18:42:22.620Z,98912.72
2022-10-17T19:12:27.034Z,98929.31
2022-10-17T19:42:31.658Z,98919.47
2022-10-17T20:12:36.117Z,98929.06
2022-10-17T20:42:40.324Z,98938.91
2022-10-17T21:12:53.818Z,98946.56
2022-10-17T21:42:58.648Z,98953.97
2022-10-17T22:13:02.925Z,98965.22
2022-10-17T22:43:07.108Z,98962.78
2022-10-17T23:13:11.499Z,98950.31
2022-10-17T23:43:15.618Z,98952.91
